Murphy, NC (28906)

4:11 PM EDT on July 07, 2015 (GMT -0400)
Shoal Creek | | Change Station
CLOSE
Current Station
Personal Weather Station
Location: Murphy, NC
Elevation: 1864 ft
Nearby Weather Stations

Elev 1864 ft 35.04 °N, 84.18 °W | Updated 7 minutes ago

Partly Cloudy
Partly Cloudy
93.0 °F
Feels Like 100 °F
N
2.2
Wind Variable Wind from ENE

Today
High -- | Low -- °F
--% Chance of Precip.
Yesterday
High -- | Low -- °F
Precip. -- in
6:28 AM 8:53 PM
Waning Gibbous, 61% visible
Pressure 30.16 in
Visibility 10.0 miles
Clouds Scattered Clouds 4600 ft
Scattered Clouds 6500 ft
Heat Index 100 °F
Dew Point 71 °F
Humidity 49%
Rainfall 0.00 in
Snow Depth Not available.
UV 8 out of 12
Pollen 3.50 out of 12
Air Quality Not available.
Flu Activity Not available.
METAR KRHP 071956Z AUTO 24007KT 10SM SCT046 SCT065 29/21 A3016 RMK AO2

More Conditions Fewer Conditions

Pressure 30.16 in
Visibility 10.0 miles
Clouds Scattered Clouds 4600 ft
Scattered Clouds 6500 ft
Heat Index 100 °F
Dew Point 71 °F
Humidity 49%
Rainfall 0.00 in
Snow Depth Not available.
UV 8 out of 12
Pollen 3.50 out of 12
Air Quality Not available.
Flu Activity Not available.
METAR KRHP 071956Z AUTO 24007KT 10SM SCT046 SCT065 29/21 A3016 RMK AO2

More Conditions Fewer Conditions

10-Day Weather Forecast

×

Almanac

Astronomy

Jul. 07, 2015 Rise Set
Actual Time
Civil Twilight
Nautical Twilight
Astronomical Twilight
Moon
Length of Visible Light
Length of Day
Tomorrow will be .
, % of the Moon is Illuminated

Today's Extremes

State Highs State Lows

Community

WunderPhotos

Upload Photos

1,835,884 photos uploaded!

WunderBlogs® & News

Nearby

Air Quality

  Air Quality AQ Index Pollutant
Not available.

Snow Depth

Station Depth Elevation

Earthquake Activity

City Distance Mag. Time & Date
Minimum magnitude displayed is 2.5.

Coastal Water Temperatures

Place Temperature

Stations

Nearby Weather Stations

Station Location Temp. Windchill Dew Point Humidity Wind Precip. Elev Updated Type